Airport Name : Corpus Christi NAS

Other Name : Corpus Christi

ICAO : KNGP

IATA : NGP

FAA : NGP

Latitude : 27.692627

Longitude : -97.291092

Country : United States

Local Date and Time : 01 Mar 2021 06:44

 

TAF (Terminal Aerodrome Forecast)

TAF AMD KNGP 0110/0207 13008KT 6000 BR OVC007 QNH2985INS TEMPO 0110/0115 VRB05KT 1200 -RADZ BR OVC002 FM011500 36008KT 8000 BR VCSH BKN004 OVC010 QNH2995INS FM011600 36016G24KT 6000 -SHRA BR BKN006 OVC012 QNH2997INS FM011700 01020G28KT 9999 VCSH SCT008 OVC015 510003 QNH2998INS TEMPO 0117/0120 8000 -SHRA BR BKN008 OVC015 FM012000 01022G30KT 9999 VCTS BKN012 OVC020CB 510003 QNH2997INS TEMPO 0120/0201 4000 +SHRA BR FM020200 36024G32KT 9999 BKN012 OVC020 510003 QNH3010INS AUTOMATED SENSOR METWATCH 0110 TIL 0112 T21/0110Z T11/0207Z AMD 1000 FN20044

 

METAR (METeorological Aerodrome Report)

KNGP 011156Z 08005KT 4SM BR OVC002 21/19 A2988 RMK AO2 VIS 1 1/2 SLP116 60000 T02060194 10217 20206 53007

KNGP 011145Z AUTO 08004KT 3SM BR OVC002 21/20 A2988 RMK AO2 T02060200

KNGP 011138Z AUTO 10004KT 2 1/2SM BR OVC002 21/20 A2987 RMK AO2 T02110200

KNGP 011121Z AUTO 12005KT 1 1/2SM BR OVC002 21/20 A2986 RMK AO2 T02060200

KNGP 011056Z AUTO 13005KT 2 1/2SM BR OVC002 21/19 A2986 RMK AO2 SLP110 T02060194

KNGP 010956Z AUTO 13007KT 4SM BR OVC003 21/20 A2986 RMK AO2 RAB06E15 SLP110 P0000 T02110200

KNGP 010856Z AUTO 14007KT 5SM BR OVC003 22/21 A2986 RMK AO2 RAB05E13 SLP110 P0000 60000 T02170206 51003

To Charter a Jet Click here.